createdAt,value
2018-06-10T00:02:15.617Z,12.27
2018-06-10T00:04:45.278Z,11.60
2018-06-10T00:07:14.905Z,13.80
2018-06-10T00:09:44.406Z,12.97
2018-06-10T00:12:14.041Z,13.20
2018-06-10T00:14:43.707Z,13.90
2018-06-10T00:17:13.359Z,11.30
2018-06-10T00:19:43.015Z,14.10
2018-06-10T00:22:12.385Z,13.30
2018-06-10T00:24:42.487Z,13.47
2018-06-10T00:27:12.107Z,13.77
2018-06-10T00:29:41.708Z,13.07
2018-06-10T00:32:11.337Z,13.93
2018-06-10T00:34:41.031Z,13.47
2018-06-10T00:37:10.515Z,14.70
2018-06-10T00:39:40.146Z,14.50
2018-06-10T00:42:09.739Z,13.50
2018-06-10T00:44:39.179Z,13.97
2018-06-10T00:47:08.768Z,13.70
2018-06-10T00:49:38.425Z,15.07
2018-06-10T00:52:08.111Z,15.00
2018-06-10T00:54:37.833Z,15.93
2018-06-10T00:57:07.353Z,14.37
2018-06-10T00:59:36.897Z,11.63
2018-06-10T01:02:06.473Z,13.30
2018-06-10T01:04:36.027Z,12.07
2018-06-10T01:07:05.801Z,11.83
2018-06-10T01:09:35.406Z,12.03
2018-06-10T01:12:05.094Z,11.77
2018-06-10T01:14:34.516Z,13.83
2018-06-10T01:17:04.168Z,14.10
2018-06-10T01:19:33.852Z,14.37
2018-06-10T01:22:03.483Z,13.70
2018-06-10T01:24:32.915Z,14.43
2018-06-10T01:27:02.645Z,14.03
2018-06-10T01:29:32.647Z,13.57
2018-06-10T01:32:02.195Z,12.17
2018-06-10T01:34:31.832Z,13.20
2018-06-10T01:37:01.466Z,12.77
2018-06-10T01:39:31.063Z,14.10
2018-06-10T01:42:00.593Z,13.53
2018-06-10T01:44:30.155Z,14.30
2018-06-10T01:46:59.731Z,15.27
2018-06-10T01:49:29.436Z,15.50
2018-06-10T01:51:59.069Z,15.33
2018-06-10T01:54:28.547Z,14.00
2018-06-10T01:56:58.028Z,16.20
2018-06-10T01:59:27.667Z,13.70
2018-06-10T02:01:57.322Z,14.30
2018-06-10T02:04:26.967Z,14.07
2018-06-10T02:06:56.488Z,13.27
2018-06-10T02:09:26.252Z,13.83
2018-06-10T02:11:55.834Z,12.87
2018-06-10T02:14:25.361Z,13.63
2018-06-10T02:16:54.926Z,13.43
2018-06-10T02:19:24.606Z,13.57
2018-06-10T02:21:54.228Z,14.00
2018-06-10T02:24:23.716Z,13.53
2018-06-10T02:26:53.392Z,12.97
2018-06-10T02:29:23.132Z,14.03
2018-06-10T02:31:52.747Z,13.47
2018-06-10T02:34:22.371Z,13.53
2018-06-10T02:36:51.992Z,11.33
2018-06-10T02:39:21.613Z,12.73
2018-06-10T02:41:51.033Z,11.77
2018-06-10T02:44:20.936Z,11.73
2018-06-10T02:46:50.564Z,13.23
2018-06-10T02:49:20.195Z,12.30
2018-06-10T02:51:49.724Z,12.83
2018-06-10T02:54:19.370Z,11.47
2018-06-10T02:56:49.047Z,11.43
2018-06-10T02:59:18.621Z,11.43
2018-06-10T03:01:48.111Z,12.40
2018-06-10T03:04:17.724Z,11.10
2018-06-10T03:06:47.357Z,11.37
2018-06-10T03:09:16.899Z,9.40
2018-06-10T03:11:46.457Z,11.70
2018-06-10T03:14:15.913Z,10.60
2018-06-10T03:16:45.739Z,12.47
2018-06-10T03:19:15.133Z,10.83
2018-06-10T03:21:44.675Z,10.03
2018-06-10T03:24:14.218Z,10.37
2018-06-10T03:26:43.771Z,11.33
2018-06-10T03:29:13.459Z,10.07
2018-06-10T03:31:43.388Z,9.03
2018-06-10T03:34:12.923Z,10.27
2018-06-10T03:36:42.401Z,10.90
2018-06-10T03:39:11.852Z,10.80
2018-06-10T03:41:41.323Z,11.10
2018-06-10T03:44:10.866Z,11.50
2018-06-10T03:46:40.476Z,11.70
2018-06-10T03:49:10.170Z,11.90
2018-06-10T03:51:39.658Z,10.00
2018-06-10T03:54:09.628Z,10.30
2018-06-10T03:56:39.092Z,11.07
2018-06-10T03:59:08.699Z,7.57
2018-06-10T04:01:38.324Z,10.33
2018-06-10T04:04:07.889Z,10.23
2018-06-10T04:06:37.363Z,11.20
2018-06-10T04:09:08.484Z,10.73
2018-06-10T04:11:38.105Z,10.63
2018-06-10T04:14:07.794Z,9.97
2018-06-10T04:16:37.365Z,9.57
2018-06-10T04:19:06.846Z,10.40
2018-06-10T04:21:36.416Z,10.57
2018-06-10T04:24:05.967Z,9.77
2018-06-10T04:26:35.563Z,10.83
2018-06-10T04:29:05.129Z,10.27
2018-06-10T04:31:34.608Z,10.50
2018-06-10T04:34:04.479Z,10.40
2018-06-10T04:36:34.025Z,9.73
2018-06-10T04:39:03.735Z,10.10
2018-06-10T04:41:33.275Z,10.17
2018-06-10T04:44:02.940Z,10.37
2018-06-10T04:46:32.534Z,8.80
2018-06-10T04:49:02.192Z,9.20
2018-06-10T04:51:31.806Z,10.97
2018-06-10T04:54:01.425Z,10.50
2018-06-10T04:56:30.952Z,9.90
2018-06-10T04:59:00.564Z,8.90
2018-06-10T05:01:30.131Z,8.60
2018-06-10T05:03:59.800Z,8.83
2018-06-10T05:06:29.475Z,10.60
2018-06-10T05:08:59.069Z,9.97
2018-06-10T05:11:28.539Z,10.00
2018-06-10T05:13:58.137Z,9.70
2018-06-10T05:16:27.688Z,9.93
2018-06-10T05:18:57.262Z,12.60
2018-06-10T05:21:26.832Z,11.73
2018-06-10T05:23:56.427Z,9.87
2018-06-10T05:26:26.079Z,9.53
2018-06-10T05:28:55.745Z,10.13
2018-06-10T05:31:25.198Z,10.23
2018-06-10T05:33:54.857Z,9.77
2018-06-10T05:36:24.781Z,11.00
2018-06-10T05:38:54.321Z,11.80
2018-06-10T05:41:23.843Z,9.80
2018-06-10T05:43:53.488Z,7.97
2018-06-10T05:46:23.078Z,9.57
2018-06-10T05:48:52.624Z,9.53
2018-06-10T05:51:22.413Z,9.47
2018-06-10T05:53:51.992Z,9.20
2018-06-10T05:56:21.515Z,9.00
2018-06-10T05:58:51.279Z,8.80
2018-06-10T06:01:20.886Z,8.70
2018-06-10T06:03:50.489Z,9.53
2018-06-10T06:06:20.036Z,10.60
2018-06-10T06:08:49.695Z,9.73
2018-06-10T06:11:19.295Z,9.63
2018-06-10T06:13:48.924Z,10.50
2018-06-10T06:16:18.592Z,10.17
2018-06-10T06:18:48.188Z,10.90
2018-06-10T06:21:17.619Z,9.93
2018-06-10T06:23:47.284Z,10.50
2018-06-10T06:26:16.801Z,9.43
2018-06-10T06:28:46.697Z,11.13
2018-06-10T06:31:16.129Z,13.40
2018-06-10T06:33:45.669Z,10.37
2018-06-10T06:36:15.304Z,12.77
2018-06-10T06:38:45.225Z,10.60
2018-06-10T06:41:14.783Z,11.83
2018-06-10T06:43:44.335Z,10.70
2018-06-10T06:46:13.869Z,10.87
2018-06-10T06:48:43.402Z,9.70
2018-06-10T06:51:12.832Z,9.33
2018-06-10T06:53:42.471Z,11.57
2018-06-10T06:56:12.144Z,10.60
2018-06-10T06:58:41.772Z,12.07
2018-06-10T07:01:11.329Z,10.20
2018-06-10T07:03:40.994Z,10.70
2018-06-10T07:06:10.723Z,9.77
2018-06-10T07:08:40.428Z,9.97
2018-06-10T07:11:10.123Z,8.60
2018-06-10T07:13:39.745Z,10.23
2018-06-10T07:16:09.471Z,10.23
2018-06-10T07:18:39.133Z,13.00
2018-06-10T07:21:08.795Z,9.53
2018-06-10T07:23:38.529Z,10.67
2018-06-10T07:26:08.187Z,11.43
2018-06-10T07:28:37.752Z,9.50
2018-06-10T07:31:07.578Z,10.57
2018-06-10T07:33:37.138Z,10.30
2018-06-10T07:36:06.800Z,9.87
2018-06-10T07:38:36.452Z,11.07
2018-06-10T07:41:06.402Z,10.00
2018-06-10T07:43:36.031Z,10.10
2018-06-10T07:46:05.723Z,9.90
2018-06-10T07:48:35.381Z,10.20
2018-06-10T07:51:05.071Z,9.87
2018-06-10T07:53:34.708Z,9.50
2018-06-10T07:56:04.333Z,10.90
2018-06-10T07:58:34.031Z,10.87
2018-06-10T08:01:03.617Z,10.73
2018-06-10T08:03:33.303Z,11.50
2018-06-10T08:06:03.174Z,9.57
2018-06-10T08:08:32.845Z,12.27
2018-06-10T08:11:02.396Z,10.60
2018-06-10T08:13:32.031Z,10.37
2018-06-10T08:16:01.735Z,12.13
2018-06-10T08:18:31.372Z,11.17
2018-06-10T08:21:00.945Z,13.67
2018-06-10T08:23:30.481Z,12.30
2018-06-10T08:26:00.128Z,11.67
2018-06-10T08:28:29.768Z,11.63
2018-06-10T08:30:59.421Z,13.00
2018-06-10T08:33:29.246Z,11.10
2018-06-10T08:35:58.975Z,11.70
2018-06-10T08:38:28.702Z,10.13
2018-06-10T08:40:58.255Z,10.30
2018-06-10T08:43:28.118Z,9.77
2018-06-10T08:45:57.776Z,10.77
2018-06-10T08:48:27.318Z,9.60
2018-06-10T08:50:57.052Z,10.20
2018-06-10T08:53:26.610Z,9.80
2018-06-10T08:55:56.247Z,10.23
2018-06-10T08:58:25.900Z,11.63
2018-06-10T09:00:55.591Z,11.70
2018-06-10T09:03:25.227Z,10.63
2018-06-10T09:05:54.901Z,9.70
2018-06-10T09:08:24.551Z,12.13
2018-06-10T09:10:54.089Z,11.53
2018-06-10T09:13:23.627Z,11.03
2018-06-10T09:15:53.258Z,12.27
2018-06-10T09:18:22.819Z,10.87
2018-06-10T09:20:52.475Z,12.50
2018-06-10T09:23:22.159Z,10.90
2018-06-10T09:25:51.805Z,10.10
2018-06-10T09:28:21.371Z,10.83
2018-06-10T09:30:50.912Z,10.87
2018-06-10T09:33:20.575Z,11.23
2018-06-10T09:35:50.348Z,10.23
2018-06-10T09:38:19.992Z,8.53
2018-06-10T09:40:49.647Z,8.67
2018-06-10T09:43:19.331Z,8.20
2018-06-10T09:45:49.339Z,8.20
2018-06-10T09:48:19.006Z,8.20
2018-06-10T09:50:48.646Z,7.30
2018-06-10T09:53:18.324Z,6.67
2018-06-10T09:55:47.965Z,7.13
2018-06-10T09:58:17.565Z,6.50
2018-06-10T10:00:47.215Z,6.80
2018-06-10T10:03:16.868Z,7.37
2018-06-10T10:05:46.546Z,5.90
2018-06-10T10:08:16.207Z,6.93
2018-06-10T10:10:45.783Z,7.40
2018-06-10T10:13:15.448Z,7.33
2018-06-10T10:15:45.104Z,6.50
2018-06-10T10:18:14.668Z,7.20
2018-06-10T10:20:44.255Z,7.50
2018-06-10T10:23:13.861Z,6.90
2018-06-10T10:25:43.460Z,6.77
2018-06-10T10:28:13.060Z,7.10
2018-06-10T10:30:42.501Z,6.67
2018-06-10T10:33:12.080Z,6.97
2018-06-10T10:35:41.614Z,7.70
2018-06-10T10:38:11.172Z,8.63
2018-06-10T10:40:40.785Z,7.43
2018-06-10T10:43:10.239Z,7.07
2018-06-10T10:45:39.835Z,8.10
2018-06-10T10:48:09.882Z,8.20
2018-06-10T10:50:39.533Z,9.10
2018-06-10T10:53:09.140Z,8.17
2018-06-10T10:55:38.712Z,8.57
2018-06-10T10:58:08.282Z,8.70
2018-06-10T11:00:37.976Z,8.47
2018-06-10T11:03:07.369Z,10.00
2018-06-10T11:05:36.987Z,8.63
2018-06-10T11:08:06.487Z,8.03
2018-06-10T11:10:36.166Z,8.10
2018-06-10T11:13:05.810Z,8.47
2018-06-10T11:15:35.249Z,7.27
2018-06-10T11:18:04.842Z,7.60
2018-06-10T11:20:34.524Z,7.30
2018-06-10T11:23:04.135Z,6.70
2018-06-10T11:25:33.737Z,6.10
2018-06-10T11:28:03.682Z,6.90
2018-06-10T11:30:33.377Z,6.20
2018-06-10T11:33:02.943Z,6.47
2018-06-10T11:35:32.546Z,6.10
2018-06-10T11:38:02.122Z,5.70
2018-06-10T11:40:31.642Z,5.87
2018-06-10T11:43:01.201Z,5.70
2018-06-10T11:45:30.811Z,5.27
2018-06-10T11:48:00.415Z,5.80
2018-06-10T11:50:30.598Z,5.87
2018-06-10T11:53:00.056Z,6.80
2018-06-10T11:55:29.622Z,6.40
2018-06-10T11:57:59.297Z,5.93
2018-06-10T12:00:28.929Z,5.80
2018-06-10T12:02:58.455Z,6.57
2018-06-10T12:05:28.056Z,6.20
2018-06-10T12:07:57.638Z,5.07
2018-06-10T12:10:28.254Z,4.97
2018-06-10T12:12:57.819Z,5.27
2018-06-10T12:15:27.428Z,4.97
2018-06-10T12:17:57.045Z,5.47
2018-06-10T12:20:26.578Z,5.37
2018-06-10T12:22:56.086Z,5.43
2018-06-10T12:25:25.566Z,5.77
2018-06-10T12:27:55.016Z,4.63
2018-06-10T12:30:24.643Z,5.57
2018-06-10T12:32:54.287Z,5.90
2018-06-10T12:35:23.821Z,5.47
2018-06-10T12:37:53.256Z,6.03
2018-06-10T12:40:22.860Z,5.03
2018-06-10T12:42:52.476Z,5.10
2018-06-10T12:45:22.024Z,5.30
2018-06-10T12:47:51.562Z,5.43
2018-06-10T12:50:21.113Z,5.30
2018-06-10T12:52:50.580Z,4.80
2018-06-10T12:55:20.060Z,5.83
2018-06-10T12:57:49.726Z,5.40
2018-06-10T13:00:19.324Z,6.87
2018-06-10T13:02:49.000Z,5.80
2018-06-10T13:05:18.655Z,6.70
2018-06-10T13:07:48.198Z,5.50
2018-06-10T13:10:17.627Z,6.43
2018-06-10T13:12:47.224Z,6.33
2018-06-10T13:15:16.831Z,6.90
2018-06-10T13:17:46.327Z,7.20
2018-06-10T13:20:15.928Z,5.93
2018-06-10T13:22:45.458Z,7.40
2018-06-10T13:25:14.948Z,5.93
2018-06-10T13:27:44.598Z,6.10
2018-06-10T13:30:14.167Z,6.23
2018-06-10T13:32:43.812Z,6.80
2018-06-10T13:35:13.245Z,6.90
2018-06-10T13:37:42.807Z,6.20
2018-06-10T13:40:12.307Z,6.07
2018-06-10T13:42:41.841Z,5.27
2018-06-10T13:45:11.442Z,5.93
2018-06-10T13:47:40.798Z,5.90
2018-06-10T13:50:10.345Z,6.30
2018-06-10T13:52:39.920Z,6.47
2018-06-10T13:55:09.765Z,6.97
2018-06-10T13:57:39.355Z,6.67
2018-06-10T14:00:08.784Z,6.43
2018-06-10T14:02:38.382Z,6.80
2018-06-10T14:05:07.964Z,7.80
2018-06-10T14:07:37.400Z,8.20
2018-06-10T14:10:06.849Z,6.87
2018-06-10T14:12:36.403Z,7.23
2018-06-10T14:15:06.109Z,7.50
2018-06-10T14:17:35.744Z,6.30
2018-06-10T14:20:05.316Z,7.37
2018-06-10T14:22:34.800Z,6.60
2018-06-10T14:25:04.518Z,8.00
2018-06-10T14:27:34.116Z,7.17
2018-06-10T14:30:03.745Z,6.20
2018-06-10T14:32:33.407Z,6.23
2018-06-10T14:35:03.160Z,6.00
2018-06-10T14:37:32.707Z,6.80
2018-06-10T14:40:02.223Z,5.47
2018-06-10T14:42:32.084Z,5.37
2018-06-10T14:45:01.750Z,5.93
2018-06-10T14:47:31.393Z,5.97
2018-06-10T14:50:00.926Z,5.00
2018-06-10T14:52:30.515Z,5.30
2018-06-10T14:55:00.174Z,4.40
2018-06-10T14:57:29.880Z,4.40
2018-06-10T14:59:59.499Z,4.10
2018-06-10T15:02:29.031Z,4.30
2018-06-10T15:04:58.547Z,4.30
2018-06-10T15:07:28.131Z,3.40
2018-06-10T15:09:57.705Z,4.63
2018-06-10T15:12:27.338Z,4.80
2018-06-10T15:14:56.930Z,4.97
2018-06-10T15:17:26.403Z,5.50
2018-06-10T15:19:56.057Z,5.60
2018-06-10T15:22:25.504Z,4.93
2018-06-10T15:24:55.087Z,5.13
2018-06-10T15:27:24.530Z,5.27
2018-06-10T15:29:54.185Z,4.43
2018-06-10T15:32:23.798Z,5.33
2018-06-10T15:34:53.328Z,4.20
2018-06-10T15:37:22.902Z,4.53
2018-06-10T15:39:52.532Z,4.87
2018-06-10T15:42:22.108Z,5.33
2018-06-10T15:44:51.570Z,5.40
2018-06-10T15:47:21.347Z,4.87
2018-06-10T15:49:50.768Z,5.37
2018-06-10T15:52:20.418Z,5.37
2018-06-10T15:54:50.003Z,4.93
2018-06-10T15:57:19.596Z,5.67
2018-06-10T15:59:49.418Z,5.03
2018-06-10T16:02:18.965Z,6.10
2018-06-10T16:04:48.466Z,6.97
2018-06-10T16:07:17.901Z,5.23
2018-06-10T16:09:47.509Z,5.93
2018-06-10T16:12:17.067Z,5.37
2018-06-10T16:14:46.680Z,5.20
2018-06-10T16:17:16.509Z,4.50
2018-06-10T16:19:45.999Z,5.67
2018-06-10T16:22:15.644Z,5.20
2018-06-10T16:24:45.196Z,5.27
2018-06-10T16:27:14.581Z,5.13
2018-06-10T16:29:44.197Z,5.53
2018-06-10T16:32:13.815Z,5.30
2018-06-10T16:34:43.355Z,5.70
2018-06-10T16:37:12.781Z,5.40
2018-06-10T16:39:42.413Z,5.70
2018-06-10T16:42:11.930Z,4.97
2018-06-10T16:44:41.594Z,5.37
2018-06-10T16:47:11.791Z,4.77
2018-06-10T16:49:42.317Z,4.00
2018-06-10T16:52:12.049Z,3.90
2018-06-10T16:54:41.583Z,5.63
2018-06-10T16:57:11.224Z,4.80
2018-06-10T16:59:40.657Z,4.60
2018-06-10T17:02:10.549Z,4.60
2018-06-10T17:04:40.061Z,4.50
2018-06-10T17:07:09.496Z,4.90
2018-06-10T17:09:39.010Z,5.80
2018-06-10T17:12:08.707Z,5.17
2018-06-10T17:14:38.232Z,5.50
2018-06-10T17:17:07.767Z,4.97
2018-06-10T17:19:37.403Z,5.73
2018-06-10T17:22:06.871Z,5.83
2018-06-10T17:24:36.473Z,6.13
2018-06-10T17:27:06.076Z,5.10
2018-06-10T17:29:35.489Z,5.17
2018-06-10T17:32:05.075Z,4.67
2018-06-10T17:34:34.679Z,6.00
2018-06-10T17:37:04.319Z,5.23
2018-06-10T17:39:34.772Z,5.73
2018-06-10T17:42:05.068Z,5.40
2018-06-10T17:44:35.415Z,4.60
2018-06-10T17:47:05.702Z,4.83
2018-06-10T17:49:35.809Z,6.20
2018-06-10T17:52:06.764Z,8.03
2018-06-10T17:54:37.098Z,6.33
2018-06-10T17:57:07.438Z,6.77
2018-06-10T17:59:37.615Z,5.47
2018-06-10T18:02:08.624Z,5.83
2018-06-10T18:04:38.611Z,5.77
2018-06-10T18:07:08.181Z,7.00
2018-06-10T18:09:37.711Z,6.27
2018-06-10T18:12:07.316Z,6.13
2018-06-10T18:14:36.934Z,6.50
2018-06-10T18:17:06.605Z,6.40
2018-06-10T18:19:36.220Z,9.73
2018-06-10T18:22:05.904Z,8.63
2018-06-10T18:24:35.557Z,6.90
2018-06-10T18:27:05.192Z,8.07
2018-06-10T18:29:34.904Z,7.23
2018-06-10T18:32:04.596Z,7.70
2018-06-10T18:34:34.190Z,7.10
2018-06-10T18:37:03.772Z,7.13
2018-06-10T18:39:33.374Z,7.40
2018-06-10T18:42:02.862Z,6.20
2018-06-10T18:44:32.506Z,6.67
2018-06-10T18:47:01.930Z,7.77
2018-06-10T18:49:31.522Z,7.30
2018-06-10T18:52:01.113Z,6.90
2018-06-10T18:54:30.796Z,7.10
2018-06-10T18:57:00.403Z,6.83
2018-06-10T18:59:30.021Z,6.80
2018-06-10T19:01:59.682Z,5.97
2018-06-10T19:04:29.200Z,6.77
2018-06-10T19:06:58.972Z,6.17
2018-06-10T19:09:28.662Z,6.10
2018-06-10T19:11:58.286Z,6.40
2018-06-10T19:14:27.975Z,6.33
2018-06-10T19:16:57.551Z,6.37
2018-06-10T19:19:27.251Z,6.10
2018-06-10T19:21:57.013Z,7.83
2018-06-10T19:24:26.623Z,7.13
2018-06-10T19:26:56.242Z,7.00
2018-06-10T19:29:25.819Z,7.83
2018-06-10T19:31:55.461Z,7.30
2018-06-10T19:34:24.990Z,6.73
2018-06-10T19:36:54.541Z,7.17
2018-06-10T19:39:24.125Z,7.27
2018-06-10T19:41:53.689Z,7.33
2018-06-10T19:44:23.272Z,7.47
2018-06-10T19:46:52.910Z,7.20
2018-06-10T19:49:22.459Z,5.77
2018-06-10T19:51:52.163Z,6.87
2018-06-10T19:54:21.740Z,6.60
2018-06-10T19:56:51.433Z,7.70
2018-06-10T19:59:21.088Z,6.70
2018-06-10T20:01:50.703Z,9.20
2018-06-10T20:04:20.260Z,9.17
2018-06-10T20:06:49.749Z,7.83
2018-06-10T20:09:20.729Z,7.70
2018-06-10T20:11:50.234Z,7.37
2018-06-10T20:14:19.652Z,7.93
2018-06-10T20:16:49.271Z,9.37
2018-06-10T20:19:18.832Z,8.27
2018-06-10T20:21:48.304Z,10.17
2018-06-10T20:24:17.863Z,9.90
2018-06-10T20:26:47.379Z,11.00
2018-06-10T20:29:16.928Z,8.07
2018-06-10T20:31:46.420Z,7.70
2018-06-10T20:34:15.968Z,8.03
2018-06-10T20:36:45.471Z,7.97
2018-06-10T20:39:14.992Z,7.73
2018-06-10T20:41:44.600Z,7.47
2018-06-10T20:44:14.204Z,8.80
2018-06-10T20:46:43.717Z,7.70
2018-06-10T20:49:13.188Z,7.37
2018-06-10T20:51:42.771Z,7.20
2018-06-10T20:54:12.424Z,8.57
2018-06-10T20:56:41.958Z,7.47
2018-06-10T20:59:11.334Z,8.03
2018-06-10T21:01:41.070Z,7.90
2018-06-10T21:04:10.625Z,7.63
2018-06-10T21:06:40.234Z,7.00
2018-06-10T21:09:09.859Z,7.30
2018-06-10T21:11:39.940Z,6.97
2018-06-10T21:14:09.480Z,7.67
2018-06-10T21:16:39.084Z,6.47
2018-06-10T21:19:08.735Z,6.27
2018-06-10T21:21:38.267Z,5.80
2018-06-10T21:24:07.831Z,6.20
2018-06-10T21:26:37.472Z,6.63
2018-06-10T21:29:06.909Z,6.37
2018-06-10T21:31:36.380Z,7.03
2018-06-10T21:34:05.977Z,5.63
2018-06-10T21:36:35.526Z,5.50
2018-06-10T21:39:07.051Z,6.17
2018-06-10T21:41:36.800Z,5.40
2018-06-10T21:44:06.458Z,6.80
2018-06-10T21:46:36.989Z,7.83
2018-06-10T21:49:06.817Z,5.83
2018-06-10T21:51:37.723Z,6.93
2018-06-10T21:54:07.280Z,6.10
2018-06-10T21:56:36.898Z,6.80
2018-06-10T21:59:07.295Z,6.47
2018-06-10T22:01:36.975Z,7.17
2018-06-10T22:04:06.540Z,7.40
2018-06-10T22:06:36.027Z,8.07
2018-06-10T22:09:07.532Z,5.50
2018-06-10T22:11:37.707Z,7.13
2018-06-10T22:14:07.662Z,6.50
2018-06-10T22:16:37.149Z,7.30
2018-06-10T22:19:07.056Z,6.30
2018-06-10T22:21:36.714Z,6.50
2018-06-10T22:24:06.326Z,6.70
2018-06-10T22:26:35.851Z,8.53
2018-06-10T22:29:05.435Z,6.90
2018-06-10T22:31:35.020Z,5.90
2018-06-10T22:34:04.651Z,6.70
2018-06-10T22:36:34.306Z,6.90
2018-06-10T22:39:04.460Z,5.60
2018-06-10T22:41:33.966Z,7.37
2018-06-10T22:44:03.470Z,7.47
2018-06-10T22:46:32.984Z,6.53
2018-06-10T22:49:02.867Z,6.47
2018-06-10T22:51:32.541Z,7.30
2018-06-10T22:54:38.866Z,6.27
2018-06-10T22:57:08.746Z,6.27
2018-06-10T22:59:38.353Z,5.90
2018-06-10T23:02:08.957Z,5.93
2018-06-10T23:04:38.609Z,6.07
2018-06-10T23:07:08.251Z,6.27
2018-06-10T23:09:37.791Z,6.00
2018-06-10T23:12:07.575Z,5.33
2018-06-10T23:14:37.197Z,6.00
2018-06-10T23:17:06.800Z,6.50
2018-06-10T23:19:36.377Z,6.10
2018-06-10T23:22:05.987Z,7.03
2018-06-10T23:24:35.361Z,7.10
2018-06-10T23:27:04.971Z,9.90
2018-06-10T23:29:34.578Z,7.93
2018-06-10T23:32:04.112Z,8.23
2018-06-10T23:34:33.631Z,7.50
2018-06-10T23:37:03.203Z,6.30
2018-06-10T23:39:32.828Z,6.70
2018-06-10T23:42:02.339Z,6.10
2018-06-10T23:44:31.862Z,6.00
2018-06-10T23:47:01.371Z,5.23
2018-06-10T23:49:30.849Z,6.27
2018-06-10T23:52:00.370Z,6.40
2018-06-10T23:54:29.933Z,7.77
2018-06-10T23:56:59.417Z,5.77
2018-06-10T23:59:28.945Z,5.10
